Terminal Aerodrome Forecast
Issued by NWS Charleston, WV

Current Version | Previous Version | Text Only | Print | Product List | Glossary Off
Versions: 1 2 3 4 5 6 7 8 9 10 11 12 13 14 15 16 17 18 19 20 21 22 23 24

000
FTUS41 KRLX 182104 AAA
TAFCRW
TAF AMD
KCRW 182104Z 1821/1918 28006KT P6SM OVC025
     FM190600 00000KT P6SM SCT025
     FM191000 00000KT 3SM BR SCT001 SCT150
     FM191400 00000KT P6SM SCT250=

USA.gov is the U.S. government's official web portal to all federal, state and local government web resources and services.